createdAt,value
2018-12-23T00:01:28.247Z,2.9
2018-12-23T00:06:30.758Z,3
2018-12-23T00:11:32.892Z,2.8
2018-12-23T00:16:35.437Z,2.8
2018-12-23T00:21:37.573Z,3
2018-12-23T00:26:40.016Z,3
2018-12-23T00:31:42.007Z,3.2
2018-12-23T00:36:46.374Z,1.5
2018-12-23T00:41:46.669Z,2.8
2018-12-23T00:46:48.875Z,3.2
2018-12-23T00:51:51.247Z,2.6
2018-12-23T00:56:57.709Z,3.4
2018-12-23T01:01:55.844Z,2.5
2018-12-23T01:06:58.154Z,4.2
2018-12-23T01:12:00.428Z,2.4
2018-12-23T01:17:02.645Z,2.3
2018-12-23T01:22:05.038Z,3.6
2018-12-23T01:27:07.325Z,3.6
2018-12-23T01:32:09.579Z,1.6
2018-12-23T01:37:11.893Z,2.5
2018-12-23T01:42:14.177Z,2.9
2018-12-23T01:47:16.448Z,2.8
2018-12-23T01:52:18.785Z,1.8
2018-12-23T01:57:21.237Z,2.2
2018-12-23T02:02:23.375Z,2.2
2018-12-23T02:07:25.677Z,2.7
2018-12-23T02:12:28.007Z,4.2
2018-12-23T02:17:30.341Z,1.5
2018-12-23T02:22:32.525Z,2.5
2018-12-23T02:27:34.804Z,3.6
2018-12-23T02:32:37.230Z,2.7
2018-12-23T02:37:39.329Z,5.3
2018-12-23T02:42:41.711Z,4.1
2018-12-23T02:47:44.174Z,3.5
2018-12-23T02:52:46.284Z,1.7
2018-12-23T02:57:48.586Z,4
2018-12-23T03:02:52.652Z,1
2018-12-23T03:07:53.202Z,2
2018-12-23T03:12:55.699Z,2.9
2018-12-23T03:17:57.863Z,2.7
2018-12-23T03:23:00.086Z,1.4
2018-12-23T03:28:02.289Z,4.7
2018-12-23T03:33:04.681Z,3.9
2018-12-23T03:38:06.994Z,2.1
2018-12-23T03:43:09.324Z,3.2
2018-12-23T03:48:11.617Z,2.3
2018-12-23T03:53:13.907Z,2.4
2018-12-23T04:03:18.446Z,2.8
2018-12-23T04:08:20.809Z,1.9
2018-12-23T04:13:23.043Z,4.4
2018-12-23T04:18:25.300Z,4.3
2018-12-23T04:23:27.612Z,2.4
2018-12-23T04:28:29.876Z,3.5
2018-12-23T04:33:32.166Z,4.6
2018-12-23T04:38:34.474Z,3.1
2018-12-23T04:43:36.866Z,5.9
2018-12-23T04:48:39.053Z,3
2018-12-23T04:53:41.332Z,2.4
2018-12-23T04:58:43.591Z,3.7
2018-12-23T05:03:45.959Z,2.6
2018-12-23T05:08:48.439Z,6.2
2018-12-23T05:13:50.513Z,2.8
2018-12-23T05:18:52.921Z,4.7
2018-12-23T05:23:56.512Z,7.1
2018-12-23T05:28:58.510Z,4.3
2018-12-23T05:33:59.601Z,6.2
2018-12-23T05:39:01.970Z,5.2
2018-12-23T05:44:04.439Z,4.4
2018-12-23T05:49:06.564Z,7.7
2018-12-23T05:54:08.990Z,6.2
2018-12-23T05:59:12.642Z,4
2018-12-23T06:04:13.410Z,6.8
2018-12-23T06:09:15.721Z,6.3
2018-12-23T06:14:18.211Z,4.7
2018-12-23T06:19:20.383Z,4.6
2018-12-23T06:24:22.760Z,7.1
2018-12-23T06:29:26.007Z,5.9
2018-12-23T06:34:27.163Z,6.1
2018-12-23T06:39:29.482Z,9.7
2018-12-23T06:44:31.833Z,4.4
2018-12-23T06:49:34.060Z,3.9
2018-12-23T06:54:36.495Z,7.3
2018-12-23T06:59:38.809Z,5.9
2018-12-23T07:04:41.043Z,7.1
2018-12-23T07:09:44.464Z,6.2
2018-12-23T07:14:47.078Z,5.5
2018-12-23T07:19:51.955Z,4
2018-12-23T07:24:50.221Z,8.8
2018-12-23T07:29:52.395Z,4.7
2018-12-23T07:34:54.689Z,5.4
2018-12-23T07:39:57.048Z,6.2
2018-12-23T07:44:59.292Z,7.5
2018-12-23T07:50:01.635Z,7.8
2018-12-23T07:55:04.062Z,6
2018-12-23T08:00:06.225Z,4.6
2018-12-23T08:05:08.498Z,7.2
2018-12-23T08:10:10.895Z,5.1
2018-12-23T08:15:13.041Z,5.2
2018-12-23T08:20:15.365Z,6.7
2018-12-23T08:25:17.642Z,7.6
2018-12-23T08:30:21.500Z,9.4
2018-12-23T08:35:22.263Z,6
2018-12-23T08:40:26.352Z,8.2
2018-12-23T08:45:26.951Z,5.8
2018-12-23T08:50:29.159Z,7.8
2018-12-23T08:55:31.455Z,5.2
2018-12-23T09:00:33.793Z,5.9
2018-12-23T09:05:37.523Z,9
2018-12-23T09:10:38.383Z,7.8
2018-12-23T09:15:40.599Z,9.5
2018-12-23T09:20:42.966Z,10.8
2018-12-23T09:25:46.396Z,9.6
2018-12-23T09:30:48.898Z,8.1
2018-12-23T09:35:50.908Z,8.6
2018-12-23T09:40:52.128Z,7.8
2018-12-23T09:45:54.467Z,8.9
2018-12-23T09:50:56.695Z,8.1
2018-12-23T09:55:59.038Z,8.5
2018-12-23T10:01:01.235Z,9.2
2018-12-23T10:06:03.538Z,8.9
2018-12-23T10:11:05.862Z,9.1
2018-12-23T10:16:09.374Z,8.5
2018-12-23T10:21:11.836Z,6.4
2018-12-23T10:26:12.734Z,7.9
2018-12-23T10:31:15.109Z,7.6
2018-12-23T10:36:17.394Z,10.1
2018-12-23T10:41:19.558Z,8.6
2018-12-23T10:46:21.995Z,8.4
2018-12-23T10:51:24.308Z,6
2018-12-23T10:56:26.442Z,9.7
2018-12-23T11:01:28.740Z,8.8
2018-12-23T11:06:31.186Z,9.6
2018-12-23T11:11:33.474Z,9
2018-12-23T11:16:36.920Z,7.2
2018-12-23T11:21:38.103Z,6.5
2018-12-23T11:31:48.379Z,7
2018-12-23T11:36:44.819Z,8.6
2018-12-23T11:41:47.198Z,7.5
2018-12-23T11:46:49.528Z,7.6
2018-12-23T11:51:51.698Z,7.4
2018-12-23T11:57:01.302Z,5.8
2018-12-23T12:01:56.408Z,4.2
2018-12-23T12:06:58.669Z,5.2
2018-12-23T12:12:02.286Z,4.8
2018-12-23T12:17:03.197Z,3.7
2018-12-23T12:22:05.499Z,9
2018-12-23T12:27:07.848Z,7.1
2018-12-23T12:32:10.047Z,7.2
2018-12-23T12:37:12.424Z,7.2
2018-12-23T12:42:14.868Z,7.9
2018-12-23T12:47:16.997Z,7
2018-12-23T12:52:19.213Z,7.1
2018-12-23T12:57:21.596Z,8.7
2018-12-23T13:02:23.765Z,9.5
2018-12-23T13:07:26.237Z,5.4
2018-12-23T13:12:28.392Z,6.7
2018-12-23T13:17:30.866Z,10.9
2018-12-23T13:22:33.065Z,8.2
2018-12-23T13:27:35.406Z,7.8
2018-12-23T13:32:38.743Z,8
2018-12-23T13:37:39.894Z,5.8
2018-12-23T13:42:42.310Z,5.7
2018-12-23T13:47:44.487Z,4.9
2018-12-23T13:52:46.735Z,7
2018-12-23T13:57:49.145Z,6.6
2018-12-23T14:02:51.457Z,4.8
2018-12-23T14:07:53.666Z,8.6
2018-12-23T14:12:55.943Z,6.7
2018-12-23T14:17:58.239Z,8.9
2018-12-23T14:23:00.601Z,9.1
2018-12-23T14:28:02.834Z,5.2
2018-12-23T14:33:05.094Z,7.2
2018-12-23T14:38:07.463Z,8.1
2018-12-23T14:43:09.710Z,7.9
2018-12-23T14:48:12.038Z,7.9
2018-12-23T14:53:14.343Z,7.2
2018-12-23T14:58:16.610Z,7.3
2018-12-23T15:03:18.959Z,12
2018-12-23T15:08:21.382Z,6.1
2018-12-23T15:13:23.564Z,8
2018-12-23T15:18:25.811Z,5.2
2018-12-23T15:23:28.108Z,6.8
2018-12-23T15:28:30.483Z,8.7
2018-12-23T15:33:32.718Z,8.2
2018-12-23T15:38:35.250Z,7.5
2018-12-23T15:43:37.352Z,9
2018-12-23T15:48:39.520Z,8.9
2018-12-23T15:53:41.909Z,11.6
2018-12-23T15:58:44.199Z,12.2
2018-12-23T16:03:46.556Z,9.6
2018-12-23T16:08:48.770Z,12.5
2018-12-23T16:13:51.044Z,15.4
2018-12-23T16:18:53.412Z,14
2018-12-23T16:23:55.609Z,17.200001
2018-12-23T16:28:57.917Z,13.4
2018-12-23T16:34:00.309Z,13.4
2018-12-23T16:39:02.459Z,14.5
2018-12-23T16:44:04.832Z,14.2
2018-12-23T16:49:07.162Z,20
2018-12-23T16:54:09.416Z,13.9
2018-12-23T16:59:11.676Z,11.2
2018-12-23T17:04:14.017Z,16.299999
2018-12-23T17:09:16.285Z,11.2
2018-12-23T17:14:20.015Z,15
2018-12-23T17:19:20.994Z,14.7
2018-12-23T17:24:23.089Z,15.1
2018-12-23T17:29:25.481Z,14.3
2018-12-23T17:34:27.880Z,13
2018-12-23T17:39:30.000Z,9.9
2018-12-23T17:44:32.249Z,11.3
2018-12-23T17:49:34.552Z,8.9
2018-12-23T17:54:37.999Z,10.3
2018-12-23T17:59:39.230Z,12.6
2018-12-23T18:04:43.053Z,13.2
2018-12-23T18:09:43.777Z,12.8
2018-12-23T18:14:46.178Z,12.1
2018-12-23T18:19:48.453Z,12.2
2018-12-23T18:24:50.628Z,13.4
2018-12-23T18:29:52.960Z,12.3
2018-12-23T18:34:55.366Z,14.3
2018-12-23T18:39:57.609Z,11.5
2018-12-23T18:44:59.811Z,8.9
2018-12-23T18:50:02.302Z,13.2
2018-12-23T18:55:04.461Z,13.1
2018-12-23T19:00:06.807Z,12.2
2018-12-23T19:05:10.474Z,12.5
2018-12-23T19:10:11.569Z,14
2018-12-23T19:15:13.608Z,12.4
2018-12-23T19:20:15.894Z,13.2
2018-12-23T19:25:18.154Z,14.4
2018-12-23T19:30:20.510Z,14.3
2018-12-23T19:35:22.769Z,14
2018-12-23T19:40:25.030Z,12.9
2018-12-23T19:45:27.339Z,14
2018-12-23T19:50:31.013Z,15.5
2018-12-23T19:55:32.043Z,11.7
2018-12-23T20:00:34.422Z,6.3
2018-12-23T20:05:36.737Z,4.7
2018-12-23T20:10:38.826Z,5.5
2018-12-23T20:15:41.207Z,7.1
2018-12-23T20:20:43.441Z,5
2018-12-23T20:25:47.016Z,5.8
2018-12-23T20:30:48.175Z,7.2
2018-12-23T20:35:50.440Z,7.2
2018-12-23T20:40:52.691Z,8.3
2018-12-23T20:45:54.889Z,9.7
2018-12-23T20:50:57.208Z,8.4
2018-12-23T20:55:59.458Z,8.5
2018-12-23T21:01:01.811Z,8.8
2018-12-23T21:06:04.138Z,5.7
2018-12-23T21:11:06.410Z,6.2
2018-12-23T21:16:08.658Z,8.7
2018-12-23T21:21:12.420Z,6.6
2018-12-23T21:26:13.281Z,4.9
2018-12-23T21:31:15.583Z,4.7
2018-12-23T21:36:18.035Z,5.9
2018-12-23T21:41:24.384Z,5.4
2018-12-23T21:46:22.539Z,6.1
2018-12-23T21:51:24.712Z,8.5
2018-12-23T21:56:27.084Z,7.3
2018-12-23T22:01:29.467Z,10.4
2018-12-23T22:06:31.700Z,9.6
2018-12-23T22:11:33.935Z,8.7
2018-12-23T22:16:36.317Z,5.7
2018-12-23T22:21:38.679Z,6.2
2018-12-23T22:26:40.861Z,5.9
2018-12-23T22:31:43.105Z,7.9
2018-12-23T22:36:45.472Z,6.7
2018-12-23T22:41:47.689Z,5.6
2018-12-23T22:46:49.999Z,4.8
2018-12-23T22:51:53.351Z,4.1
2018-12-23T22:56:54.624Z,6.3
2018-12-23T23:01:56.861Z,6
2018-12-23T23:06:59.273Z,6.1
2018-12-23T23:12:01.601Z,9.6
2018-12-23T23:17:03.866Z,9.6
2018-12-23T23:22:06.127Z,9.8
2018-12-23T23:27:08.299Z,9.5
2018-12-23T23:32:10.763Z,5.8
2018-12-23T23:37:12.947Z,7.8
2018-12-23T23:42:15.297Z,9.6
2018-12-23T23:47:17.454Z,7.2
2018-12-23T23:52:19.888Z,7.1
2018-12-23T23:57:23.219Z,5.3
